createdAt,value
2023-02-01T00:03:12.703Z,0.0
2023-02-01T00:08:13.777Z,0.0
2023-02-01T00:13:14.979Z,0.0
2023-02-01T00:18:16.173Z,0.0
2023-02-01T00:23:17.168Z,0.0
2023-02-01T00:28:18.065Z,0.0
2023-02-01T00:33:19.004Z,0.0
2023-02-01T00:38:19.918Z,0.0
2023-02-01T00:43:20.864Z,0.0
2023-02-01T00:48:21.750Z,0.0
2023-02-01T00:53:22.712Z,0.0
2023-02-01T00:58:23.637Z,0.0
2023-02-01T01:03:24.569Z,0.0
2023-02-01T01:08:25.483Z,0.0
2023-02-01T01:13:26.388Z,0.0
2023-02-01T01:18:27.334Z,0.0
2023-02-01T01:23:28.257Z,0.0
2023-02-01T01:28:29.188Z,0.0
2023-02-01T01:33:30.201Z,0.0
2023-02-01T01:38:31.150Z,0.0
2023-02-01T01:43:32.105Z,0.0
2023-02-01T01:48:33.035Z,0.0
2023-02-01T01:53:33.991Z,0.0
2023-02-01T01:58:34.902Z,0.0
2023-02-01T02:03:35.908Z,0.0
2023-02-01T02:08:36.829Z,0.0
2023-02-01T02:13:37.785Z,0.0
2023-02-01T02:18:38.736Z,0.0
2023-02-01T02:23:39.670Z,0.0
2023-02-01T02:28:40.609Z,0.0
2023-02-01T02:33:41.530Z,0.0
2023-02-01T02:38:42.474Z,0.0
2023-02-01T02:43:43.409Z,0.0
2023-02-01T02:48:44.435Z,0.0
2023-02-01T02:53:45.407Z,0.0
2023-02-01T02:58:46.348Z,0.0
2023-02-01T03:03:47.412Z,0.0
2023-02-01T03:08:48.321Z,0.0
2023-02-01T03:13:49.457Z,0.0
2023-02-01T03:18:50.403Z,0.0
2023-02-01T03:23:51.346Z,0.0
2023-02-01T03:28:52.291Z,0.0
2023-02-01T03:33:53.246Z,0.0
2023-02-01T03:38:54.151Z,0.0
2023-02-01T03:43:55.085Z,0.0
2023-02-01T03:48:56.002Z,0.0
2023-02-01T03:53:56.987Z,0.0
2023-02-01T03:58:57.922Z,0.0
2023-02-01T04:03:58.903Z,0.0
2023-02-01T04:08:59.836Z,0.0
2023-02-01T04:14:00.876Z,0.0
2023-02-01T04:19:01.940Z,0.0
2023-02-01T04:24:02.863Z,0.0
2023-02-01T04:29:03.783Z,0.0
2023-02-01T04:34:04.738Z,0.0
2023-02-01T04:39:05.669Z,0.0
2023-02-01T04:44:06.592Z,0.0
2023-02-01T04:49:07.489Z,0.0
2023-02-01T04:54:08.438Z,0.0
2023-02-01T04:59:09.307Z,0.0
2023-02-01T05:04:10.262Z,0.0
2023-02-01T05:09:11.175Z,0.0
2023-02-01T05:14:12.089Z,0.0
2023-02-01T05:19:13.045Z,0.0
2023-02-01T05:24:14.261Z,0.0
2023-02-01T05:29:15.181Z,0.0
2023-02-01T05:34:16.170Z,0.0
2023-02-01T05:39:17.091Z,0.0
2023-02-01T05:44:18.010Z,0.0
2023-02-01T05:49:18.934Z,0.0
2023-02-01T05:54:19.865Z,0.0
2023-02-01T05:59:20.792Z,0.0
2023-02-01T06:04:21.728Z,0.0
2023-02-01T06:09:22.658Z,0.0
2023-02-01T06:14:23.611Z,0.0
2023-02-01T06:19:24.536Z,0.4148
2023-02-01T06:24:25.632Z,0.47405
2023-02-01T06:29:26.568Z,0.8296
2023-02-01T06:34:27.501Z,3.67
2023-02-01T06:39:28.400Z,6.9711
2023-02-01T06:44:29.307Z,3.24595
2023-02-01T06:49:30.254Z,16.2659
2023-02-01T06:54:31.301Z,23.8455
2023-02-01T06:59:32.223Z,19.567
2023-02-01T07:04:33.155Z,33.95225
2023-02-01T07:09:34.197Z,56.6739
2023-02-01T07:14:35.094Z,64.65855
2023-02-01T07:19:36.011Z,63.53285
2023-02-01T07:24:36.974Z,54.23805
2023-02-01T07:29:37.894Z,95.58545
2023-02-01T07:34:38.914Z,167.89775
2023-02-01T07:39:39.987Z,196.7614
2023-02-01T07:44:40.921Z,296.0567
2023-02-01T07:49:41.862Z,157.27565
2023-02-01T07:54:42.779Z,98.77625
2023-02-01T07:59:43.735Z,105.13885
2023-02-01T08:04:44.694Z,108.43995
2023-02-01T08:09:45.680Z,86.2355
2023-02-01T08:14:46.670Z,79.44885
2023-02-01T08:19:47.604Z,123.544
2023-02-01T08:24:48.562Z,137.4862
2023-02-01T08:29:49.495Z,130.93915
2023-02-01T08:34:50.471Z,137.7258
2023-02-01T08:39:51.405Z,170.7558
2023-02-01T08:44:52.335Z,212.1032
2023-02-01T08:49:53.280Z,175.58765
2023-02-01T08:54:54.263Z,211.18095
2023-02-01T08:59:55.322Z,190.0832
2023-02-01T09:04:56.314Z,173.13465
2023-02-01T09:09:57.269Z,187.31645
2023-02-01T09:14:58.300Z,209.3916
2023-02-01T09:19:59.294Z,223.5924
2023-02-01T09:25:00.271Z,475.53125
2023-02-01T09:30:01.384Z,411.31575
2023-02-01T09:35:02.324Z,373.4349
2023-02-01T09:40:03.513Z,880.50155
2023-02-01T09:45:04.514Z,655.7283
2023-02-01T09:50:05.451Z,404.3428
2023-02-01T09:55:06.351Z,592.3609
2023-02-01T10:00:07.284Z,606.52555
2023-02-01T10:05:08.228Z,458.26895
2023-02-01T10:10:09.118Z,496.44455
2023-02-01T10:15:10.050Z,296.4942
2023-02-01T10:20:10.969Z,367.01715
2023-02-01T10:25:11.936Z,421.95685
2023-02-01T10:30:12.873Z,521.9501
2023-02-01T10:35:14.272Z,1004.8385
2023-02-01T10:40:15.189Z,1011.7716
2023-02-01T10:45:16.534Z,453.4561
2023-02-01T10:50:17.654Z,406.63035
2023-02-01T10:55:18.644Z,412.238
2023-02-01T11:00:19.596Z,437.74355
2023-02-01T11:05:20.530Z,324.2683
2023-02-01T11:10:21.760Z,375.57415
2023-02-01T11:15:23.157Z,818.05825
2023-02-01T11:20:24.295Z,854.8704
2023-02-01T11:25:25.592Z,960.34015
2023-02-01T11:30:26.775Z,1297.1492
2023-02-01T11:35:27.717Z,1837.24585
2023-02-01T11:40:28.668Z,1946.9144
2023-02-01T11:45:29.728Z,1812.01235
2023-02-01T11:50:30.652Z,1609.61085
2023-02-01T11:55:31.586Z,830.3784
2023-02-01T12:00:32.501Z,1088.2521
2023-02-01T12:05:33.383Z,1350.15125
2023-02-01T12:10:34.302Z,1254.4022
2023-02-01T12:15:35.272Z,990.805
2023-02-01T12:20:36.172Z,1050.5024
2023-02-01T12:25:37.100Z,911.0804
2023-02-01T12:30:38.055Z,935.0552
2023-02-01T12:35:38.982Z,787.795
2023-02-01T12:40:39.927Z,609.62505
2023-02-01T12:45:40.905Z,738.22335
2023-02-01T12:50:41.844Z,423.5446
2023-02-01T12:55:42.765Z,510.31445
2023-02-01T13:00:43.715Z,501.11095
2023-02-01T13:05:44.656Z,474.09365
2023-02-01T13:10:45.572Z,394.8844
2023-02-01T13:15:46.506Z,645.8477
2023-02-01T13:20:47.433Z,684.13175
2023-02-01T13:25:48.397Z,749.7867
2023-02-01T13:30:49.524Z,856.0304
2023-02-01T13:35:50.533Z,482.7058
2023-02-01T13:40:51.673Z,484.73475
2023-02-01T13:45:52.651Z,516.65805
2023-02-01T13:50:53.575Z,474.0385
2023-02-01T13:55:54.490Z,547.01445
2023-02-01T14:00:55.412Z,528.0008
2023-02-01T14:05:56.367Z,448.957
2023-02-01T14:10:57.319Z,324.60105
2023-02-01T14:16:03.528Z,219.27775
2023-02-01T14:21:09.820Z,150.7096
2023-02-01T14:26:19.778Z,148.93925
2023-02-01T14:31:20.911Z,174.6844
2023-02-01T14:36:21.913Z,227.59515
2023-02-01T14:41:22.867Z,183.1311
2023-02-01T14:46:23.875Z,154.8778
2023-02-01T14:51:25.089Z,163.98815
2023-02-01T14:56:26.043Z,107.48155
2023-02-01T15:01:27.095Z,118.1778
2023-02-01T15:06:28.041Z,97.1352
2023-02-01T15:11:28.978Z,65.6911
2023-02-01T15:16:30.095Z,40.18555
2023-02-01T15:21:31.384Z,32.2922
2023-02-01T15:26:33.549Z,16.08145
2023-02-01T15:31:34.617Z,9.11035
2023-02-01T15:36:35.702Z,9.11035
2023-02-01T15:41:36.670Z,5.80925
2023-02-01T15:46:37.635Z,3.48555
2023-02-01T15:51:38.558Z,1.3463
2023-02-01T15:56:39.446Z,2.3237
2023-02-01T16:01:43.049Z,1.16185
2023-02-01T16:06:44.205Z,1.16185
2023-02-01T16:11:45.133Z,0.0
2023-02-01T16:16:51.086Z,0.0
2023-02-01T16:21:52.005Z,1.16185
2023-02-01T16:26:53.057Z,0.0
2023-02-01T16:31:54.136Z,1.16185
2023-02-01T16:36:55.136Z,0.0
2023-02-01T16:41:56.069Z,1.16185
2023-02-01T16:46:56.995Z,0.0
2023-02-01T16:51:57.915Z,1.16185
2023-02-01T16:56:58.835Z,1.16185
2023-02-01T17:01:59.814Z,1.16185
2023-02-01T17:07:00.760Z,1.16185
2023-02-01T17:12:01.793Z,0.0
2023-02-01T17:17:02.754Z,0.0
2023-02-01T17:22:03.679Z,0.4148
2023-02-01T17:27:04.629Z,1.16185
2023-02-01T17:32:06.657Z,0.0
2023-02-01T17:37:07.831Z,0.0
2023-02-01T17:42:08.756Z,0.0
2023-02-01T17:47:09.664Z,0.0
2023-02-01T17:52:10.596Z,0.0
2023-02-01T17:57:11.552Z,0.0
2023-02-01T18:02:12.478Z,0.0
2023-02-01T18:07:13.414Z,0.0
2023-02-01T18:12:14.608Z,0.0
2023-02-01T18:17:15.828Z,0.0
2023-02-01T18:22:16.760Z,0.0
2023-02-01T18:27:17.694Z,0.0
2023-02-01T18:32:18.592Z,0.0
2023-02-01T18:37:19.488Z,0.0
2023-02-01T18:42:20.451Z,0.0
2023-02-01T18:47:21.350Z,0.0
2023-02-01T18:52:22.281Z,0.0
2023-02-01T18:57:23.249Z,0.0
2023-02-01T19:02:24.347Z,0.0
2023-02-01T19:07:25.384Z,0.0
2023-02-01T19:12:26.316Z,0.0
2023-02-01T19:17:27.276Z,0.0
2023-02-01T19:22:28.219Z,0.0
2023-02-01T19:27:29.171Z,0.0
2023-02-01T19:32:30.122Z,0.0
2023-02-01T19:37:31.067Z,0.0
2023-02-01T19:42:32.086Z,0.0
2023-02-01T19:47:33.042Z,0.0
2023-02-01T19:52:34.055Z,0.0
2023-02-01T19:57:35.016Z,0.0
2023-02-01T20:02:35.104Z,0.0
2023-02-01T20:07:36.142Z,0.0
2023-02-01T20:12:37.071Z,0.0
2023-02-01T20:17:38.015Z,0.0
2023-02-01T20:22:39.023Z,0.0
2023-02-01T20:27:40.828Z,0.0
2023-02-01T20:32:41.756Z,0.0
2023-02-01T20:37:42.710Z,0.0
2023-02-01T20:42:43.727Z,0.0
2023-02-01T20:47:44.699Z,0.0
2023-02-01T20:52:45.622Z,0.0
2023-02-01T20:57:46.581Z,0.0
2023-02-01T21:02:47.478Z,0.0
2023-02-01T21:07:48.433Z,0.0
2023-02-01T21:12:53.432Z,0.0
2023-02-01T21:18:02.159Z,0.0
2023-02-01T21:23:03.064Z,0.0
2023-02-01T21:28:04.004Z,0.0
2023-02-01T21:33:04.947Z,0.0
2023-02-01T21:38:05.873Z,0.0
2023-02-01T21:43:06.866Z,0.0
2023-02-01T21:48:07.782Z,0.0
2023-02-01T21:53:08.676Z,0.0
2023-02-01T21:58:09.704Z,0.0
2023-02-01T22:03:10.628Z,0.0
2023-02-01T22:08:11.561Z,0.0
2023-02-01T22:13:12.555Z,0.0
2023-02-01T22:18:13.517Z,0.0
2023-02-01T22:23:14.878Z,0.0
2023-02-01T22:28:30.218Z,0.0
2023-02-01T22:33:34.248Z,0.0
2023-02-01T22:38:35.216Z,0.0
2023-02-01T22:43:36.301Z,0.0
2023-02-01T22:48:37.270Z,0.0
2023-02-01T22:53:38.183Z,0.0
2023-02-01T22:58:39.139Z,0.0
2023-02-01T23:03:40.336Z,0.0
2023-02-01T23:08:41.337Z,0.0
2023-02-01T23:13:42.335Z,0.0
2023-02-01T23:18:43.272Z,0.0
2023-02-01T23:23:44.393Z,0.0
2023-02-01T23:28:45.519Z,0.0
2023-02-01T23:33:46.538Z,0.0
2023-02-01T23:38:47.460Z,0.0
2023-02-01T23:43:48.406Z,0.0
2023-02-01T23:48:49.352Z,0.0
2023-02-01T23:53:50.333Z,0.0
2023-02-01T23:58:51.244Z,0.0
